createdAt,value
2022-09-28T00:01:18.024Z,95.58
2022-09-28T00:03:45.991Z,95.99
2022-09-28T00:06:14.148Z,95.39
2022-09-28T00:08:40.733Z,96.04
2022-09-28T00:11:11.183Z,96.69
2022-09-28T00:13:37.945Z,95.53
2022-09-28T00:16:08.233Z,94.83
2022-09-28T00:18:36.057Z,95.18
2022-09-28T00:21:06.827Z,96.52
2022-09-28T00:23:33.924Z,96.49
2022-09-28T00:26:05.627Z,95.77
2022-09-28T00:28:32.450Z,95.94
2022-09-28T00:30:59.275Z,96.22
2022-09-28T00:33:25.901Z,97.05
2022-09-28T00:35:56.984Z,96.80
2022-09-28T00:38:27.337Z,96.48
2022-09-28T00:40:55.527Z,96.55
2022-09-28T00:43:24.063Z,97.33
2022-09-28T00:45:59.073Z,96.55
2022-09-28T00:48:29.214Z,95.89
2022-09-28T00:50:57.319Z,96.08
2022-09-28T00:53:31.817Z,95.71
2022-09-28T00:56:07.442Z,97.68
2022-09-28T00:58:38.788Z,97.97
2022-09-28T01:01:05.701Z,96.65
2022-09-28T01:03:33.606Z,96.11
2022-09-28T01:06:02.743Z,97.18
2022-09-28T01:08:31.669Z,97.00
2022-09-28T01:10:59.908Z,95.86
2022-09-28T01:13:27.142Z,95.60
2022-09-28T01:15:59.355Z,96.74
2022-09-28T01:18:30.746Z,96.60
2022-09-28T01:21:05.430Z,97.36
2022-09-28T01:24:00.254Z,97.07
2022-09-28T01:26:51.549Z,97.29
2022-09-28T01:29:33.430Z,96.60
2022-09-28T01:32:24.872Z,96.43
2022-09-28T01:35:18.435Z,97.23
2022-09-28T01:37:52.572Z,97.68
2022-09-28T01:40:21.676Z,97.99
2022-09-28T01:42:53.178Z,97.38
2022-09-28T01:45:43.499Z,95.74
2022-09-28T01:48:13.168Z,96.02
2022-09-28T01:50:42.207Z,95.30
2022-09-28T01:53:43.299Z,97.00
2022-09-28T01:56:22.287Z,97.37
2022-09-28T01:58:57.863Z,97.43
2022-09-28T02:01:34.310Z,97.93
2022-09-28T02:04:08.659Z,97.09
2022-09-28T02:06:41.853Z,96.31
2022-09-28T02:09:13.376Z,96.53
2022-09-28T02:11:46.707Z,94.90
2022-09-28T02:14:17.013Z,96.08
2022-09-28T02:16:44.936Z,96.69
2022-09-28T02:19:25.737Z,96.34
2022-09-28T02:22:23.326Z,95.94
2022-09-28T02:24:58.335Z,95.29
2022-09-28T02:27:34.154Z,95.37
2022-09-28T02:30:01.403Z,96.66
2022-09-28T02:32:29.435Z,97.36
2022-09-28T02:34:55.888Z,96.50
2022-09-28T02:37:22.523Z,96.30
2022-09-28T02:39:48.915Z,96.22
2022-09-28T02:42:27.476Z,95.02
2022-09-28T02:45:02.857Z,95.42
2022-09-28T02:47:46.890Z,93.30
2022-09-28T02:50:19.256Z,93.96
2022-09-28T02:52:57.524Z,93.22
2022-09-28T02:55:38.422Z,92.85
2022-09-28T02:58:27.860Z,93.04
2022-09-28T03:01:27.141Z,92.71
2022-09-28T03:04:12.325Z,93.17
2022-09-28T03:06:53.860Z,93.00
2022-09-28T03:09:26.799Z,93.93
2022-09-28T03:11:58.693Z,93.76
2022-09-28T03:14:25.398Z,94.00
2022-09-28T03:16:51.790Z,93.29
2022-09-28T03:19:23.270Z,93.21
2022-09-28T03:21:49.807Z,92.83
2022-09-28T03:24:16.183Z,92.70
2022-09-28T03:26:42.563Z,91.67
2022-09-28T03:29:08.929Z,91.78
2022-09-28T03:31:35.363Z,91.74
2022-09-28T03:34:01.993Z,91.56
2022-09-28T03:36:28.380Z,91.24
2022-09-28T03:38:59.372Z,90.94
2022-09-28T03:41:27.703Z,90.94
2022-09-28T03:43:54.052Z,90.48
2022-09-28T03:46:20.505Z,90.11
2022-09-28T03:48:47.023Z,90.77
2022-09-28T03:51:14.069Z,90.54
2022-09-28T03:53:40.699Z,90.46
2022-09-28T03:56:11.743Z,90.28
2022-09-28T03:58:38.154Z,90.27
2022-09-28T04:01:07.049Z,90.68
2022-09-28T04:03:33.890Z,90.04
2022-09-28T04:06:01.184Z,90.51
2022-09-28T04:08:28.536Z,90.08
2022-09-28T04:10:59.302Z,89.98
2022-09-28T04:13:26.277Z,88.80
2022-09-28T04:15:54.655Z,89.39
2022-09-28T04:18:21.523Z,90.18
2022-09-28T04:20:48.148Z,89.87
2022-09-28T04:23:15.604Z,90.06
2022-09-28T04:25:42.518Z,90.08
2022-09-28T04:28:27.899Z,90.22
2022-09-28T04:30:54.280Z,90.36
2022-09-28T04:33:20.784Z,89.64
2022-09-28T04:35:47.235Z,89.88
2022-09-28T04:38:13.611Z,90.25
2022-09-28T04:40:40.288Z,90.78
2022-09-28T04:43:06.785Z,91.03
2022-09-28T04:45:33.262Z,90.75
2022-09-28T04:47:59.685Z,90.88
2022-09-28T04:50:26.302Z,90.87
2022-09-28T04:52:52.769Z,90.92
2022-09-28T04:55:20.514Z,90.84
2022-09-28T04:57:47.034Z,90.73
2022-09-28T05:00:14.011Z,91.37
2022-09-28T05:02:40.395Z,90.90
2022-09-28T05:05:07.273Z,90.76
2022-09-28T05:07:33.671Z,91.10
2022-09-28T05:10:00.583Z,90.43
2022-09-28T05:12:27.056Z,90.48
2022-09-28T05:14:53.399Z,90.85
2022-09-28T05:17:19.935Z,90.35
2022-09-28T05:19:46.437Z,89.54
2022-09-28T05:22:14.781Z,89.38
2022-09-28T05:24:41.617Z,89.26
2022-09-28T05:27:08.269Z,90.19
2022-09-28T05:29:34.798Z,90.56
2022-09-28T05:32:01.668Z,89.86
2022-09-28T05:34:28.849Z,88.99
2022-09-28T05:36:55.286Z,88.00
2022-09-28T05:39:21.630Z,89.05
2022-09-28T05:41:48.145Z,88.87
2022-09-28T05:44:14.514Z,88.38
2022-09-28T05:46:40.979Z,87.70
2022-09-28T05:49:07.360Z,87.83
2022-09-28T05:51:33.768Z,88.14
2022-09-28T05:54:05.389Z,87.93
2022-09-28T05:56:41.392Z,88.25
2022-09-28T05:59:07.850Z,86.70
2022-09-28T06:01:34.327Z,87.12
2022-09-28T06:04:01.055Z,87.07
2022-09-28T06:06:27.491Z,87.44
2022-09-28T06:08:54.285Z,87.04
2022-09-28T06:11:20.723Z,87.35
2022-09-28T06:13:47.255Z,87.40
2022-09-28T06:16:16.492Z,88.62
2022-09-28T06:18:42.981Z,87.55
2022-09-28T06:21:10.916Z,87.48
2022-09-28T06:23:39.995Z,87.87
2022-09-28T06:26:07.886Z,87.40
2022-09-28T06:28:34.362Z,86.72
2022-09-28T06:31:01.647Z,87.38
2022-09-28T06:33:28.135Z,87.41
2022-09-28T06:35:54.519Z,87.42
2022-09-28T06:38:21.954Z,87.56
2022-09-28T06:40:48.405Z,86.77
2022-09-28T06:43:15.376Z,86.61
2022-09-28T06:45:43.009Z,85.05
2022-09-28T06:48:10.667Z,83.99
2022-09-28T06:50:40.704Z,83.94
2022-09-28T06:53:09.453Z,83.40
2022-09-28T06:55:38.791Z,82.89
2022-09-28T06:58:09.427Z,82.44
2022-09-28T07:00:37.778Z,83.14
2022-09-28T07:03:11.272Z,81.22
2022-09-28T07:05:42.171Z,82.04
2022-09-28T07:08:08.701Z,82.66
2022-09-28T07:10:35.232Z,82.39
2022-09-28T07:13:05.240Z,82.27
2022-09-28T07:15:32.909Z,83.41
2022-09-28T07:18:03.566Z,82.21
2022-09-28T07:20:32.351Z,83.65
2022-09-28T07:23:15.840Z,84.52
2022-09-28T07:25:47.798Z,83.19
2022-09-28T07:28:14.785Z,80.76
2022-09-28T07:30:42.209Z,81.03
2022-09-28T07:33:12.563Z,80.33
2022-09-28T07:35:39.105Z,82.65
2022-09-28T07:38:07.084Z,80.72
2022-09-28T07:40:54.088Z,79.55
2022-09-28T07:43:21.254Z,79.04
2022-09-28T07:45:48.946Z,78.51
2022-09-28T07:48:16.268Z,78.15
2022-09-28T07:50:55.135Z,75.89
2022-09-28T07:53:24.795Z,74.80
2022-09-28T07:55:56.188Z,76.97
2022-09-28T07:58:23.281Z,76.19
2022-09-28T08:00:50.877Z,75.85
2022-09-28T08:03:19.062Z,77.20
2022-09-28T08:05:47.358Z,76.59
2022-09-28T08:08:15.012Z,78.19
2022-09-28T08:10:47.120Z,78.00
2022-09-28T08:13:15.152Z,79.11
2022-09-28T08:15:42.430Z,79.50
2022-09-28T08:18:09.242Z,79.20
2022-09-28T08:20:53.979Z,80.60
2022-09-28T08:23:20.938Z,79.50
2022-09-28T08:25:50.879Z,78.65
2022-09-28T08:28:17.973Z,77.34
2022-09-28T08:30:47.004Z,77.85
2022-09-28T08:33:15.186Z,78.12
2022-09-28T08:35:42.291Z,77.50
2022-09-28T08:38:09.670Z,79.43
2022-09-28T08:40:54.913Z,78.38
2022-09-28T08:43:47.318Z,80.18
2022-09-28T08:46:16.927Z,79.58
2022-09-28T08:49:20.624Z,80.06
2022-09-28T08:51:51.223Z,78.74
2022-09-28T08:54:31.679Z,78.42
2022-09-28T08:57:14.134Z,76.75
2022-09-28T08:59:43.309Z,75.56
2022-09-28T09:02:22.191Z,75.61
2022-09-28T09:04:51.579Z,75.13
2022-09-28T09:07:39.400Z,73.27
2022-09-28T09:10:09.136Z,75.43
2022-09-28T09:15:44.645Z,73.23
2022-09-28T09:18:19.903Z,72.04
2022-09-28T09:20:58.565Z,71.92
2022-09-28T09:23:35.360Z,73.10
2022-09-28T09:26:15.453Z,72.55
2022-09-28T09:29:05.129Z,74.89
2022-09-28T09:31:57.495Z,76.57
2022-09-28T09:34:33.225Z,78.01
2022-09-28T09:37:17.981Z,77.17
2022-09-28T09:40:04.978Z,79.04
2022-09-28T09:42:52.502Z,77.39
2022-09-28T09:45:56.048Z,77.04
2022-09-28T09:48:29.975Z,79.26
2022-09-28T09:51:11.778Z,78.30
2022-09-28T09:53:48.869Z,78.75
2022-09-28T09:56:21.625Z,80.14
2022-09-28T09:59:00.692Z,79.13
2022-09-28T10:01:34.528Z,77.48
2022-09-28T10:04:04.792Z,76.60
2022-09-28T10:06:36.590Z,77.42
2022-09-28T10:09:41.153Z,72.94
2022-09-28T10:12:15.236Z,70.83
2022-09-28T10:14:42.287Z,70.91
2022-09-28T10:17:14.572Z,66.71
2022-09-28T10:19:42.570Z,66.13
2022-09-28T10:22:19.234Z,64.01
2022-09-28T10:24:56.319Z,64.29
2022-09-28T10:27:30.589Z,62.31
2022-09-28T10:30:25.528Z,67.83
2022-09-28T10:32:55.530Z,68.10
2022-09-28T10:35:29.469Z,67.79
2022-09-28T10:38:06.571Z,67.04
2022-09-28T10:40:37.364Z,66.47
2022-09-28T10:43:08.195Z,64.91
2022-09-28T10:45:37.132Z,65.45
2022-09-28T10:48:18.051Z,67.61
2022-09-28T10:51:06.926Z,66.90
2022-09-28T10:53:36.981Z,67.69
2022-09-28T10:56:08.714Z,68.08
2022-09-28T10:58:40.618Z,68.87
2022-09-28T11:01:16.426Z,68.92
2022-09-28T11:03:54.784Z,68.58
2022-09-28T11:06:27.975Z,65.90
2022-09-28T11:08:57.928Z,64.47
2022-09-28T11:11:27.452Z,67.28
2022-09-28T11:14:00.347Z,68.83
2022-09-28T11:16:35.933Z,69.04
2022-09-28T11:19:20.716Z,69.10
2022-09-28T11:21:47.333Z,69.08
2022-09-28T11:24:23.097Z,71.53
2022-09-28T11:26:52.841Z,73.39
2022-09-28T11:29:23.837Z,75.25
2022-09-28T11:31:51.422Z,73.56
2022-09-28T11:34:41.499Z,71.72
2022-09-28T11:37:28.622Z,71.88
2022-09-28T11:40:26.804Z,68.44
2022-09-28T11:43:28.479Z,68.00
2022-09-28T11:46:02.301Z,68.55
2022-09-28T11:48:58.069Z,68.86
2022-09-28T11:51:30.327Z,70.41
2022-09-28T11:54:14.594Z,68.65
2022-09-28T11:56:49.025Z,68.40
2022-09-28T11:59:30.650Z,67.41
2022-09-28T12:02:00.643Z,66.51
2022-09-28T12:04:41.251Z,66.77
2022-09-28T12:07:22.371Z,65.44
2022-09-28T12:09:55.782Z,67.52
2022-09-28T12:12:31.495Z,65.98
2022-09-28T12:15:05.413Z,65.72
2022-09-28T12:17:40.454Z,55.25
2022-09-28T12:20:18.788Z,49.81
2022-09-28T12:22:53.461Z,49.39
2022-09-28T12:25:23.087Z,47.85
2022-09-28T12:27:53.922Z,50.57
2022-09-28T12:30:25.187Z,51.24
2022-09-28T12:33:09.302Z,51.73
2022-09-28T12:35:53.382Z,48.03
2022-09-28T12:38:31.937Z,53.21
2022-09-28T12:41:16.622Z,53.79
2022-09-28T12:44:13.178Z,56.06
2022-09-28T12:46:53.765Z,57.20
2022-09-28T12:50:33.332Z,58.43
2022-09-28T12:52:43.343Z,63.01
2022-09-28T12:55:42.397Z,65.94
2022-09-28T12:58:15.172Z,63.04
2022-09-28T13:01:12.281Z,64.81
2022-09-28T13:03:41.154Z,63.43
2022-09-28T13:06:22.299Z,64.44
2022-09-28T13:08:48.707Z,65.16
2022-09-28T13:11:20.782Z,64.25
2022-09-28T13:14:03.043Z,63.80
2022-09-28T13:17:10.961Z,63.73
2022-09-28T13:19:44.030Z,53.91
2022-09-28T13:22:35.590Z,43.59
2022-09-28T13:25:10.432Z,36.67
2022-09-28T13:28:04.445Z,33.26
2022-09-28T13:30:34.304Z,33.01
2022-09-28T13:33:04.091Z,31.85
2022-09-28T13:35:33.181Z,34.47
2022-09-28T13:38:17.783Z,40.51
2022-09-28T13:41:06.117Z,43.11
2022-09-28T13:44:06.982Z,46.61
2022-09-28T13:47:08.300Z,46.78
2022-09-28T13:50:19.185Z,49.51
2022-09-28T13:52:52.855Z,41.77
2022-09-28T13:56:00.827Z,39.64
2022-09-28T13:58:42.079Z,39.88
2022-09-28T14:01:18.006Z,38.45
2022-09-28T14:04:19.094Z,40.39
2022-09-28T14:07:16.663Z,43.42
2022-09-28T14:09:48.554Z,45.22
2022-09-28T14:12:33.559Z,47.32
2022-09-28T14:15:01.269Z,48.42
2022-09-28T14:17:27.737Z,48.89
2022-09-28T14:20:00.105Z,53.00
2022-09-28T14:22:55.154Z,53.65
2022-09-28T14:25:28.127Z,51.26
2022-09-28T14:28:25.082Z,53.23
2022-09-28T14:30:56.739Z,52.96
2022-09-28T14:33:30.652Z,53.94
2022-09-28T14:36:06.499Z,53.82
2022-09-28T14:39:02.898Z,55.58
2022-09-28T14:41:35.547Z,55.47
2022-09-28T14:44:06.397Z,56.46
2022-09-28T14:46:35.378Z,56.56
2022-09-28T14:49:17.428Z,56.98
2022-09-28T14:51:45.038Z,57.07
2022-09-28T14:54:15.155Z,58.47
2022-09-28T14:56:57.025Z,59.62
2022-09-28T14:59:30.493Z,59.32
2022-09-28T15:02:19.622Z,59.31
2022-09-28T15:05:06.475Z,58.91
2022-09-28T15:07:49.523Z,57.97
2022-09-28T15:10:31.229Z,58.34
2022-09-28T15:13:03.347Z,58.98
2022-09-28T15:15:40.467Z,58.00
2022-09-28T15:18:07.086Z,58.21
2022-09-28T15:20:38.061Z,58.70
2022-09-28T15:23:04.554Z,58.36
2022-09-28T15:25:32.751Z,58.58
2022-09-28T15:28:13.892Z,58.65
2022-09-28T15:30:40.462Z,59.27
2022-09-28T15:33:51.669Z,60.15
2022-09-28T15:36:28.824Z,60.38
2022-09-28T15:39:02.706Z,59.92
2022-09-28T15:41:29.153Z,62.08
2022-09-28T15:44:28.999Z,61.22
2022-09-28T15:47:07.537Z,61.09
2022-09-28T15:49:53.120Z,59.58
2022-09-28T15:52:42.791Z,58.86
2022-09-28T15:55:24.125Z,59.54
2022-09-28T15:58:03.936Z,59.31
2022-09-28T16:00:31.480Z,59.61
2022-09-28T16:03:07.091Z,60.08
2022-09-28T16:05:46.548Z,60.82
2022-09-28T16:08:27.223Z,60.19
2022-09-28T16:11:16.976Z,61.11
2022-09-28T16:13:57.876Z,59.94
2022-09-28T16:16:31.111Z,60.35
2022-09-28T16:19:01.076Z,61.10
2022-09-28T16:21:36.599Z,62.49
2022-09-28T16:24:03.388Z,62.48
2022-09-28T16:26:37.269Z,63.64
2022-09-28T16:29:24.683Z,63.96
2022-09-28T16:31:53.028Z,63.42
2022-09-28T16:34:23.671Z,63.76
2022-09-28T16:36:50.602Z,64.36
2022-09-28T16:39:18.868Z,65.50
2022-09-28T16:41:56.015Z,65.08
2022-09-28T16:44:28.343Z,65.34
2022-09-28T16:46:57.490Z,65.49
2022-09-28T16:49:25.435Z,68.63
2022-09-28T16:51:52.470Z,69.10
2022-09-28T16:54:40.403Z,70.53
2022-09-28T16:57:09.592Z,71.13
2022-09-28T16:59:38.285Z,71.90
2022-09-28T17:05:07.052Z,72.89
2022-09-28T17:07:34.059Z,73.05
2022-09-28T17:10:00.440Z,74.29
2022-09-28T17:12:29.095Z,74.49
2022-09-28T17:14:55.474Z,75.12
2022-09-28T17:17:22.659Z,75.97
2022-09-28T17:19:49.074Z,76.52
2022-09-28T17:22:16.700Z,77.58
2022-09-28T17:24:45.433Z,77.48
2022-09-28T17:27:18.645Z,78.27
2022-09-28T17:29:45.055Z,78.56
2022-09-28T17:32:18.184Z,78.06
2022-09-28T17:34:51.521Z,78.81
2022-09-28T17:37:22.514Z,76.99
2022-09-28T17:39:48.963Z,77.23
2022-09-28T17:42:17.152Z,77.75
2022-09-28T17:44:43.571Z,78.97
2022-09-28T17:47:11.215Z,79.24
2022-09-28T17:49:38.161Z,79.36
2022-09-28T17:52:05.489Z,79.95
2022-09-28T17:54:32.593Z,80.73
2022-09-28T17:56:59.180Z,81.23
2022-09-28T17:59:27.427Z,80.91
2022-09-28T18:01:53.837Z,81.31
2022-09-28T18:04:40.168Z,80.96
2022-09-28T18:07:06.813Z,81.82
2022-09-28T18:09:33.202Z,81.91
2022-09-28T18:12:04.036Z,82.18
2022-09-28T18:14:30.531Z,82.15
2022-09-28T18:16:56.953Z,82.96
2022-09-28T18:19:23.340Z,83.73
2022-09-28T18:21:49.755Z,83.25
2022-09-28T18:24:16.329Z,83.01
2022-09-28T18:26:42.819Z,83.34
2022-09-28T18:29:09.224Z,83.57
2022-09-28T18:31:36.676Z,84.87
2022-09-28T18:34:03.331Z,84.47
2022-09-28T18:36:31.984Z,84.64
2022-09-28T18:39:00.921Z,84.45
2022-09-28T18:41:28.309Z,85.21
2022-09-28T18:44:00.737Z,84.70
2022-09-28T18:46:28.682Z,85.20
2022-09-28T18:48:55.884Z,85.18
2022-09-28T18:51:22.537Z,85.57
2022-09-28T18:53:49.007Z,85.61
2022-09-28T18:56:20.977Z,85.42
2022-09-28T18:58:52.651Z,85.79
2022-09-28T19:01:36.513Z,85.83
2022-09-28T19:04:05.926Z,86.33
2022-09-28T19:06:34.374Z,86.29
2022-09-28T19:09:01.401Z,86.65
2022-09-28T19:11:28.612Z,86.37
2022-09-28T19:13:56.067Z,87.11
2022-09-28T19:16:25.614Z,87.00
2022-09-28T19:18:53.468Z,87.25
2022-09-28T19:21:20.573Z,87.54
2022-09-28T19:23:49.847Z,88.11
2022-09-28T19:26:21.063Z,87.91
2022-09-28T19:28:48.717Z,87.08
2022-09-28T19:31:15.704Z,87.47
2022-09-28T19:33:42.593Z,87.59
2022-09-28T19:36:12.263Z,87.58
2022-09-28T19:38:39.459Z,87.79
2022-09-28T19:41:39.581Z,87.42
2022-09-28T19:44:21.020Z,87.85
2022-09-28T19:46:47.471Z,88.65
2022-09-28T19:49:21.109Z,89.15
2022-09-28T19:52:17.890Z,88.54
2022-09-28T19:54:37.537Z,88.71
2022-09-28T19:57:10.482Z,88.96
2022-09-28T19:59:37.578Z,89.35
2022-09-28T20:02:06.936Z,89.50
2022-09-28T20:04:33.479Z,89.50
2022-09-28T20:07:00.222Z,89.19
2022-09-28T20:09:26.619Z,89.10
2022-09-28T20:11:53.229Z,89.28
2022-09-28T20:14:20.168Z,88.83
2022-09-28T20:16:48.120Z,86.95
2022-09-28T20:19:14.799Z,86.04
2022-09-28T20:21:41.289Z,85.26
2022-09-28T20:24:08.617Z,85.01
2022-09-28T20:26:37.538Z,84.62
2022-09-28T20:29:07.521Z,83.91
2022-09-28T20:31:38.245Z,84.10
2022-09-28T20:34:06.070Z,84.01
2022-09-28T20:36:32.593Z,83.41
2022-09-28T20:39:03.393Z,83.28
2022-09-28T20:41:36.440Z,83.36
2022-09-28T20:44:05.935Z,82.65
2022-09-28T20:46:34.669Z,83.48
2022-09-28T20:49:01.586Z,82.44
2022-09-28T20:51:28.102Z,82.72
2022-09-28T20:53:56.559Z,83.42
2022-09-28T20:56:24.983Z,83.15
2022-09-28T20:58:52.392Z,85.07
2022-09-28T21:01:23.859Z,85.08
2022-09-28T21:03:55.731Z,85.35
2022-09-28T21:06:24.401Z,84.99
2022-09-28T21:08:50.915Z,85.32
2022-09-28T21:11:19.777Z,85.98
2022-09-28T21:13:47.487Z,87.11
2022-09-28T21:16:17.967Z,87.11
2022-09-28T21:18:44.949Z,86.99
2022-09-28T21:21:17.026Z,86.60
2022-09-28T21:23:46.832Z,87.14
2022-09-28T21:26:24.653Z,86.68
2022-09-28T21:28:55.935Z,86.27
2022-09-28T21:31:28.816Z,86.79
2022-09-28T21:33:56.423Z,86.95
2022-09-28T21:36:22.775Z,87.76
2022-09-28T21:38:49.323Z,88.09
2022-09-28T21:41:15.768Z,87.79
2022-09-28T21:43:42.270Z,89.18
2022-09-28T21:46:09.807Z,91.01
2022-09-28T21:48:36.203Z,90.97
2022-09-28T21:51:05.385Z,90.97
2022-09-28T21:53:34.327Z,90.04
2022-09-28T21:56:01.993Z,90.29
2022-09-28T21:58:33.472Z,90.34
2022-09-28T22:01:13.028Z,90.13
2022-09-28T22:03:39.669Z,89.93
2022-09-28T22:06:06.749Z,90.24
2022-09-28T22:08:34.067Z,91.92
2022-09-28T22:11:12.294Z,92.55
2022-09-28T22:13:47.071Z,91.30
2022-09-28T22:16:14.988Z,91.00
2022-09-28T22:18:41.630Z,90.42
2022-09-28T22:21:16.385Z,90.66
2022-09-28T22:23:42.926Z,90.15
2022-09-28T22:26:21.453Z,90.36
2022-09-28T22:28:51.119Z,91.46
2022-09-28T22:31:19.747Z,91.79
2022-09-28T22:33:46.625Z,91.94
2022-09-28T22:36:16.596Z,92.15
2022-09-28T22:38:44.578Z,91.90
2022-09-28T22:41:11.604Z,92.68
2022-09-28T22:43:38.148Z,92.17
2022-09-28T22:46:12.317Z,91.59
2022-09-28T22:48:39.201Z,92.19
2022-09-28T22:51:06.660Z,92.20
2022-09-28T22:53:34.853Z,92.60
2022-09-28T22:56:04.811Z,92.11
2022-09-28T22:58:35.508Z,91.55
2022-09-28T23:01:14.053Z,92.35
2022-09-28T23:03:42.011Z,91.80
2022-09-28T23:06:09.525Z,92.05
2022-09-28T23:08:36.027Z,91.98
2022-09-28T23:11:03.393Z,92.38
2022-09-28T23:13:31.120Z,92.25
2022-09-28T23:15:58.981Z,92.81
2022-09-28T23:18:28.430Z,93.18
2022-09-28T23:21:03.772Z,92.13
2022-09-28T23:23:30.387Z,91.70
2022-09-28T23:25:57.041Z,91.73
2022-09-28T23:28:24.785Z,91.99
2022-09-28T23:30:51.977Z,91.34
2022-09-28T23:33:20.169Z,92.01
2022-09-28T23:35:47.123Z,91.98
2022-09-28T23:38:16.489Z,92.24
2022-09-28T23:40:42.994Z,91.87
2022-09-28T23:43:09.403Z,92.06
2022-09-28T23:45:36.033Z,91.63
2022-09-28T23:48:02.586Z,91.39
2022-09-28T23:50:29.443Z,91.93
2022-09-28T23:52:55.847Z,91.26
2022-09-28T23:55:22.233Z,91.88
2022-09-28T23:57:48.622Z,91.44
